Peleus — V2FV2 — position and weather

sailwx.info

Track history (hours):
 
Tides and Currents Weather Stations Pressure Air Temp Water Temp Dewpoint Dewpoint Depression Visibility Wind Speed Wind Dir Waves Ship Positions

Peleus

Last reported at 2014-Sep-18 07:27 UTC. Time now 2014-Sep-19 07:53 UTC.
Position N 38°11' W 009°41'.

Length 88 m; draft 5.8 m.

Type: Ship. MMSI: 305810000.

Date/timePositionNaut miles runAvg speedWind from/ knotsBaromVisibWave heightAir tempDewpointWater temp
2014-Sep-18 07:27N 38°11' W 009°41'5 6.0
2014-Sep-18 06:33N 38°05' W 009°40'7 7.2
2014-Sep-18 05:33N 37°58' W 009°38'6 6.3
2014-Sep-18 04:33N 37°52' W 009°36'6 6.3
2014-Sep-18 03:33N 37°46' W 009°34'6 6.0
2014-Sep-18 02:33N 37°40' W 009°32'6 6.0
2014-Sep-18 01:33N 37°34' W 009°31'61 5.6
2014-Sep-17 14:33N 36°41' W 008°53'6 5.9
2014-Sep-17 13:34N 36°39' W 008°46'6 5.7
2014-Sep-17 12:33N 36°38' W 008°39'  
2014-Sep-14 19:33N 36°38' W 001°21'8 7.3
2014-Sep-14 18:26N 36°39' W 001°11'9 7.9
2014-Sep-14 17:19N 36°42' W 001°01'6 7.5
2014-Sep-14 16:33N 36°43' W 000°54'8 7.6
2014-Sep-14 15:33N 36°45' W 000°45'8 7.7
2014-Sep-14 14:33N 36°48' W 000°36'8 7.5
2014-Sep-14 13:33N 36°50' W 000°27'8 7.6
2014-Sep-14 12:33N 36°52' W 000°17'7 7.5
2014-Sep-14 11:33N 36°54' W 000°09'7 7.2
2014-Sep-14 10:33N 36°56' E 000°00'8 7.2
2014-Sep-14 09:30N 36°58' E 000°09'7 7.4
2014-Sep-14 08:33N 36°59' E 000°18'8 7.6
2014-Sep-14 07:33N 37°01' E 000°27'8 7.7
2014-Sep-14 06:33N 37°03' E 000°37'8 8.3
2014-Sep-14 05:33N 37°04' E 000°47'8 7.4
2014-Sep-14 04:33N 37°06' E 000°56'25 7.8
2014-Sep-14 01:23N 37°13' E 001°26'30 7.9
2014-Sep-13 21:33N 37°21' E 002°02'8 7.9
2014-Sep-13 20:29N 37°24' E 002°13'19 8.2
2014-Sep-13 18:13N 37°28' E 002°36'6 8.1
2014-Sep-13 17:31N 37°29' E 002°43'8 8.4
2014-Sep-13 16:33N 37°31' E 002°52'8 8.3
2014-Sep-13 15:33N 37°32' E 003°03'8 8.2
2014-Sep-13 14:33N 37°33' E 003°13'8 8.1
2014-Sep-13 13:33N 37°34' E 003°23'8 8.1
2014-Sep-13 12:32N 37°34' E 003°34'7 7.7
2014-Sep-13 11:33N 37°35' E 003°43'286 7.3
2014-Sep-11 20:16N 37°39' E 009°43'5 6.6
2014-Sep-11 19:33N 37°39' E 009°49'14 7.0
2014-Sep-11 17:33N 37°39' E 010°07'6 6.4
2014-Sep-11 16:32N 37°39' E 010°15'7 7.0
2014-Sep-11 15:30N 37°38' E 010°24'7 7.2
2014-Sep-11 14:33N 37°36' E 010°33'7 7.2
2014-Sep-11 13:33N 37°36' E 010°42'7 7.0
2014-Sep-11 12:33N 37°35' E 010°51'133 7.8
2014-Sep-10 19:26N 37°06' E 013°34'9 9.1
2014-Sep-10 18:27N 37°04' E 013°45'8 8.7
2014-Sep-10 17:33N 37°02' E 013°54'7 7.3
2014-Sep-10 16:33N 36°58' E 014°02'7 7.2
2014-Sep-10 15:33N 36°55' E 014°10'8 7.9
2014-Sep-10 14:33N 36°51' E 014°18'8 8.0
2014-Sep-10 13:33N 36°47' E 014°27'8 7.9
2014-Sep-10 12:32N 36°44' E 014°36'  
Track history (hours):
 
Tides and Currents Weather Stations Pressure Air Temp Water Temp Dewpoint Dewpoint Depression Visibility Wind Speed Wind Dir Waves Ship Positions

Peleus

Last reported at 2014-Sep-18 07:27 UTC. Time now 2014-Sep-19 07:53 UTC.
Position N 38°11' W 009°41'.

Length 88 m; draft 5.8 m.

Type: Ship. MMSI: 305810000.

Date/timePositionNaut miles runAvg speedWind from/ knotsBaromVisibWave heightAir tempDewpointWater temp
2014-Sep-18 07:27N 38°11' W 009°41'5 6.0
2014-Sep-18 06:33N 38°05' W 009°40'7 7.2
2014-Sep-18 05:33N 37°58' W 009°38'6 6.3
2014-Sep-18 04:33N 37°52' W 009°36'6 6.3
2014-Sep-18 03:33N 37°46' W 009°34'6 6.0
2014-Sep-18 02:33N 37°40' W 009°32'6 6.0
2014-Sep-18 01:33N 37°34' W 009°31'61 5.6
2014-Sep-17 14:33N 36°41' W 008°53'6 5.9
2014-Sep-17 13:34N 36°39' W 008°46'6 5.7
2014-Sep-17 12:33N 36°38' W 008°39'  
2014-Sep-14 19:33N 36°38' W 001°21'8 7.3
2014-Sep-14 18:26N 36°39' W 001°11'9 7.9
2014-Sep-14 17:19N 36°42' W 001°01'6 7.5
2014-Sep-14 16:33N 36°43' W 000°54'8 7.6
2014-Sep-14 15:33N 36°45' W 000°45'8 7.7
2014-Sep-14 14:33N 36°48' W 000°36'8 7.5
2014-Sep-14 13:33N 36°50' W 000°27'8 7.6
2014-Sep-14 12:33N 36°52' W 000°17'7 7.5
2014-Sep-14 11:33N 36°54' W 000°09'7 7.2
2014-Sep-14 10:33N 36°56' E 000°00'8 7.2
2014-Sep-14 09:30N 36°58' E 000°09'7 7.4
2014-Sep-14 08:33N 36°59' E 000°18'8 7.6
2014-Sep-14 07:33N 37°01' E 000°27'8 7.7
2014-Sep-14 06:33N 37°03' E 000°37'8 8.3
2014-Sep-14 05:33N 37°04' E 000°47'8 7.4
2014-Sep-14 04:33N 37°06' E 000°56'25 7.8
2014-Sep-14 01:23N 37°13' E 001°26'30 7.9
2014-Sep-13 21:33N 37°21' E 002°02'8 7.9
2014-Sep-13 20:29N 37°24' E 002°13'19 8.2
2014-Sep-13 18:13N 37°28' E 002°36'6 8.1
2014-Sep-13 17:31N 37°29' E 002°43'8 8.4
2014-Sep-13 16:33N 37°31' E 002°52'8 8.3
2014-Sep-13 15:33N 37°32' E 003°03'8 8.2
2014-Sep-13 14:33N 37°33' E 003°13'8 8.1
2014-Sep-13 13:33N 37°34' E 003°23'8 8.1
2014-Sep-13 12:32N 37°34' E 003°34'7 7.7
2014-Sep-13 11:33N 37°35' E 003°43'286 7.3
2014-Sep-11 20:16N 37°39' E 009°43'5 6.6
2014-Sep-11 19:33N 37°39' E 009°49'14 7.0
2014-Sep-11 17:33N 37°39' E 010°07'6 6.4
2014-Sep-11 16:32N 37°39' E 010°15'7 7.0
2014-Sep-11 15:30N 37°38' E 010°24'7 7.2
2014-Sep-11 14:33N 37°36' E 010°33'7 7.2
2014-Sep-11 13:33N 37°36' E 010°42'7 7.0
2014-Sep-11 12:33N 37°35' E 010°51'133 7.8
2014-Sep-10 19:26N 37°06' E 013°34'9 9.1
2014-Sep-10 18:27N 37°04' E 013°45'8 8.7
2014-Sep-10 17:33N 37°02' E 013°54'7 7.3
2014-Sep-10 16:33N 36°58' E 014°02'7 7.2
2014-Sep-10 15:33N 36°55' E 014°10'8 7.9
2014-Sep-10 14:33N 36°51' E 014°18'8 8.0
2014-Sep-10 13:33N 36°47' E 014°27'8 7.9
2014-Sep-10 12:32N 36°44' E 014°36'  

Dump ship's entire track history